createdAt,value
2017-12-06T00:01:35.987Z,13.75
2017-12-06T00:04:03.452Z,12.82
2017-12-06T00:06:30.923Z,14.57
2017-12-06T00:08:58.364Z,12.32
2017-12-06T00:11:25.842Z,11.77
2017-12-06T00:13:58.833Z,13.02
2017-12-06T00:16:26.330Z,12.37
2017-12-06T00:18:53.786Z,13.48
2017-12-06T00:21:21.840Z,11.93
2017-12-06T00:23:49.311Z,12.75
2017-12-06T00:39:06.795Z,10.55
2017-12-06T00:41:34.253Z,11.40
2017-12-06T00:44:01.717Z,9.90
2017-12-06T00:46:29.160Z,10.80
2017-12-06T00:48:56.634Z,12.23
2017-12-06T00:51:26.016Z,11.07
2017-12-06T00:53:53.616Z,10.50
2017-12-06T00:56:21.830Z,11.70
2017-12-06T00:58:49.319Z,12.15
2017-12-06T01:01:16.774Z,11.70
2017-12-06T01:03:45.407Z,11.20
2017-12-06T01:06:12.891Z,10.82
2017-12-06T01:08:40.338Z,11.88
2017-12-06T01:11:07.804Z,10.82
2017-12-06T01:13:35.754Z,11.30
2017-12-06T01:16:03.225Z,11.10
2017-12-06T01:18:30.684Z,11.45
2017-12-06T01:20:58.151Z,10.82
2017-12-06T01:23:25.707Z,11.15
2017-12-06T01:25:53.188Z,11.80
2017-12-06T01:28:20.611Z,10.95
2017-12-06T01:30:48.861Z,11.40
2017-12-06T01:33:16.352Z,10.43
2017-12-06T01:35:43.808Z,11.90
2017-12-06T01:38:11.267Z,12.23
2017-12-06T01:40:38.737Z,11.60
2017-12-06T01:43:06.234Z,12.95
2017-12-06T01:45:33.716Z,10.85
2017-12-06T01:48:01.192Z,12.05
2017-12-06T01:50:30.332Z,11.38
2017-12-06T01:52:57.877Z,12.18
2017-12-06T01:55:25.323Z,12.45
2017-12-06T01:57:52.784Z,12.43
2017-12-06T02:00:20.994Z,11.75
2017-12-06T02:02:48.452Z,12.25
2017-12-06T02:05:16.692Z,11.45
2017-12-06T02:07:44.152Z,13.52
2017-12-06T02:10:12.197Z,11.73
2017-12-06T02:12:40.423Z,12.05
2017-12-06T02:15:07.873Z,13.20
2017-12-06T02:17:36.104Z,13.25
2017-12-06T02:20:03.653Z,13.23
2017-12-06T02:22:31.170Z,12.75
2017-12-06T02:24:58.609Z,12.00
2017-12-06T02:27:26.274Z,12.85
2017-12-06T02:29:54.495Z,12.37
2017-12-06T02:32:21.990Z,13.05
2017-12-06T02:34:49.980Z,12.95
2017-12-06T02:37:17.482Z,12.65
2017-12-06T02:39:56.743Z,12.82
2017-12-06T02:42:36.733Z,12.18
2017-12-06T02:45:15.999Z,12.15
2017-12-06T02:47:43.456Z,11.82
2017-12-06T02:50:11.973Z,13.77
2017-12-06T02:52:39.440Z,13.35
2017-12-06T02:55:06.917Z,12.70
2017-12-06T02:57:34.389Z,12.32
2017-12-06T03:00:02.218Z,12.07
2017-12-06T03:02:29.700Z,12.85
2017-12-06T03:05:01.213Z,12.35
2017-12-06T03:07:28.673Z,12.02
2017-12-06T03:09:56.133Z,11.55
2017-12-06T03:12:23.616Z,12.63
2017-12-06T03:14:51.055Z,12.77
2017-12-06T03:17:18.519Z,12.95
2017-12-06T03:19:45.984Z,12.55
2017-12-06T03:22:13.469Z,14.38
2017-12-06T03:24:40.942Z,12.75
2017-12-06T03:27:08.467Z,13.48
2017-12-06T03:29:36.091Z,12.80
2017-12-06T03:32:03.583Z,11.77
2017-12-06T03:34:31.046Z,14.13
2017-12-06T03:36:58.491Z,13.95
2017-12-06T03:39:26.305Z,13.02
2017-12-06T03:41:53.741Z,13.25
2017-12-06T03:44:21.200Z,13.00
2017-12-06T03:46:48.661Z,13.48
2017-12-06T03:49:16.872Z,13.30
2017-12-06T03:51:44.385Z,13.88
2017-12-06T03:54:11.852Z,13.15
2017-12-06T03:56:41.202Z,13.60
2017-12-06T03:59:08.660Z,12.98
2017-12-06T04:01:36.128Z,13.35
2017-12-06T04:04:03.677Z,13.77
2017-12-06T04:06:32.509Z,12.37
2017-12-06T04:08:59.932Z,14.95
2017-12-06T04:11:28.195Z,13.98
2017-12-06T04:13:55.688Z,14.45
2017-12-06T04:16:23.976Z,13.70
2017-12-06T04:18:52.220Z,12.82
2017-12-06T04:21:19.670Z,13.57
2017-12-06T04:23:47.144Z,13.55
2017-12-06T04:26:14.608Z,13.05
2017-12-06T04:28:42.940Z,13.75
2017-12-06T04:31:10.394Z,15.02
2017-12-06T04:33:37.861Z,14.15
2017-12-06T04:36:06.066Z,13.10
2017-12-06T04:38:33.524Z,14.70
2017-12-06T04:41:00.968Z,14.30
2017-12-06T04:43:28.494Z,13.43
2017-12-06T04:45:56.103Z,14.32
2017-12-06T04:48:23.564Z,14.45
2017-12-06T04:50:51.042Z,14.87
2017-12-06T04:53:19.316Z,14.27
2017-12-06T04:55:46.781Z,13.45
2017-12-06T04:58:14.358Z,15.00
2017-12-06T05:00:41.831Z,13.50
2017-12-06T05:03:09.295Z,12.57
2017-12-06T05:05:37.520Z,13.75
2017-12-06T05:08:04.961Z,14.82
2017-12-06T05:10:33.201Z,13.48
2017-12-06T05:13:00.678Z,13.60
2017-12-06T05:15:28.237Z,15.27
2017-12-06T05:17:55.682Z,14.18
2017-12-06T05:20:23.891Z,13.07
2017-12-06T05:22:51.366Z,13.55
2017-12-06T05:25:18.807Z,13.73
2017-12-06T05:27:47.052Z,14.00
2017-12-06T05:30:15.076Z,15.23
2017-12-06T05:32:42.596Z,12.70
2017-12-06T05:35:10.035Z,13.20
2017-12-06T05:37:37.501Z,13.38
2017-12-06T05:40:04.955Z,11.52
2017-12-06T05:42:32.424Z,14.23
2017-12-06T05:44:59.860Z,12.37
2017-12-06T05:47:27.326Z,13.62
2017-12-06T05:49:55.530Z,15.63
2017-12-06T05:52:23.012Z,15.43
2017-12-06T05:54:50.464Z,13.88
2017-12-06T05:57:18.679Z,13.45
2017-12-06T05:59:46.128Z,14.45
2017-12-06T06:02:14.335Z,14.43
2017-12-06T06:04:42.491Z,12.30
2017-12-06T06:07:09.931Z,13.10
2017-12-06T06:09:37.398Z,10.73
2017-12-06T06:12:05.710Z,12.50
2017-12-06T06:14:33.171Z,13.10
2017-12-06T06:17:01.872Z,13.35
2017-12-06T06:19:29.355Z,13.38
2017-12-06T06:21:56.804Z,12.37
2017-12-06T06:24:25.077Z,14.43
2017-12-06T06:26:53.345Z,14.85
2017-12-06T06:29:20.781Z,13.88
2017-12-06T06:31:48.262Z,13.65
2017-12-06T06:34:15.711Z,13.95
2017-12-06T06:36:43.187Z,14.20
2017-12-06T06:39:10.620Z,14.32
2017-12-06T06:41:38.987Z,14.93
2017-12-06T06:44:06.438Z,15.57
2017-12-06T06:46:33.886Z,14.63
2017-12-06T06:49:02.572Z,14.98
2017-12-06T06:51:30.016Z,14.02
2017-12-06T06:53:57.561Z,12.65
2017-12-06T06:56:25.012Z,14.07
2017-12-06T06:58:53.844Z,13.02
2017-12-06T07:01:21.348Z,13.20
2017-12-06T07:03:48.813Z,13.32
2017-12-06T07:06:18.138Z,13.82
2017-12-06T07:08:45.607Z,13.93
2017-12-06T07:11:13.064Z,13.35
2017-12-06T07:13:40.528Z,13.57
2017-12-06T07:16:07.973Z,12.73
2017-12-06T07:18:35.423Z,14.60
2017-12-06T07:21:02.886Z,14.98
2017-12-06T07:23:30.403Z,12.68
2017-12-06T07:25:58.633Z,13.00
2017-12-06T07:28:26.824Z,13.93
2017-12-06T07:30:54.396Z,12.73
2017-12-06T07:33:21.832Z,12.27
2017-12-06T07:35:49.346Z,14.55
2017-12-06T07:38:16.805Z,12.40
2017-12-06T07:40:45.027Z,13.70
2017-12-06T07:43:12.501Z,11.77
2017-12-06T07:45:40.016Z,13.30
2017-12-06T07:48:07.462Z,14.23
2017-12-06T07:50:34.928Z,11.77
2017-12-06T07:53:06.228Z,13.40
2017-12-06T07:55:33.674Z,12.88
2017-12-06T07:58:01.156Z,13.30
2017-12-06T08:00:28.585Z,12.40
2017-12-06T08:02:58.172Z,13.10
2017-12-06T08:05:25.689Z,13.70
2017-12-06T08:07:53.145Z,11.73
2017-12-06T08:10:21.359Z,12.57
2017-12-06T08:12:53.513Z,14.30
2017-12-06T08:15:21.744Z,12.13
2017-12-06T08:17:49.233Z,13.00
2017-12-06T08:20:16.689Z,11.70
2017-12-06T08:22:44.144Z,12.77
2017-12-06T08:25:11.654Z,11.23
2017-12-06T08:27:39.083Z,10.85
2017-12-06T08:30:07.333Z,13.32
2017-12-06T08:32:34.824Z,12.13
2017-12-06T08:35:02.272Z,13.35
2017-12-06T08:37:29.718Z,14.65
2017-12-06T08:39:57.192Z,13.10
2017-12-06T08:42:25.244Z,13.98
2017-12-06T08:44:52.694Z,12.52
2017-12-06T08:47:20.143Z,12.02
2017-12-06T08:49:47.647Z,13.23
2017-12-06T08:52:15.094Z,11.88
2017-12-06T08:54:44.384Z,11.93
2017-12-06T08:57:12.656Z,11.93
2017-12-06T08:59:40.162Z,11.63
2017-12-06T09:02:08.410Z,11.30
2017-12-06T09:04:35.852Z,13.70
2017-12-06T09:07:04.257Z,13.10
2017-12-06T09:09:31.706Z,11.95
2017-12-06T09:11:59.166Z,12.40
2017-12-06T09:14:27.384Z,12.55
2017-12-06T09:16:54.855Z,12.90
2017-12-06T09:19:22.295Z,11.10
2017-12-06T09:21:49.943Z,12.55
2017-12-06T09:24:17.412Z,10.90
2017-12-06T09:26:44.856Z,12.00
2017-12-06T09:29:12.359Z,10.73
2017-12-06T09:31:39.951Z,12.15
2017-12-06T09:34:07.381Z,11.27
2017-12-06T09:36:34.839Z,12.88
2017-12-06T09:39:03.071Z,11.25
2017-12-06T09:41:30.513Z,12.43
2017-12-06T09:43:58.775Z,11.10
2017-12-06T09:46:26.252Z,12.23
2017-12-06T09:48:53.827Z,10.98
2017-12-06T09:51:21.291Z,11.15
2017-12-06T09:53:48.757Z,9.90
2017-12-06T09:56:16.223Z,9.43
2017-12-06T09:58:43.646Z,10.30
2017-12-06T10:01:11.872Z,9.77
2017-12-06T10:03:39.326Z,10.30
2017-12-06T10:06:06.779Z,10.40
2017-12-06T10:08:34.999Z,9.18
2017-12-06T10:11:03.234Z,10.20
2017-12-06T10:13:30.655Z,10.02
2017-12-06T10:15:58.119Z,11.00
2017-12-06T10:18:26.348Z,11.00
2017-12-06T10:20:53.860Z,10.48
2017-12-06T10:23:21.294Z,11.68
2017-12-06T10:25:48.782Z,10.60
2017-12-06T10:28:16.251Z,10.88
2017-12-06T10:30:43.725Z,10.68
2017-12-06T10:33:11.188Z,11.45
2017-12-06T10:35:38.635Z,10.68
2017-12-06T10:38:06.871Z,11.40
2017-12-06T10:40:34.321Z,10.85
2017-12-06T10:43:02.597Z,10.60
2017-12-06T10:45:30.823Z,10.38
2017-12-06T10:47:58.280Z,11.70
2017-12-06T10:50:25.727Z,12.85
2017-12-06T10:52:53.175Z,12.82
2017-12-06T10:55:20.628Z,13.10
2017-12-06T10:57:48.101Z,13.27
2017-12-06T11:00:15.566Z,15.25
2017-12-06T11:02:43.035Z,13.05
2017-12-06T11:05:10.522Z,14.70
2017-12-06T11:07:37.971Z,14.25
2017-12-06T11:10:06.199Z,14.23
2017-12-06T11:12:33.680Z,15.40
2017-12-06T11:15:01.161Z,15.48
2017-12-06T11:17:28.620Z,16.67
2017-12-06T11:19:56.090Z,14.52
2017-12-06T11:22:23.745Z,18.17
2017-12-06T11:24:51.197Z,16.10
2017-12-06T11:27:18.674Z,15.70
2017-12-06T11:29:46.337Z,17.20
2017-12-06T11:32:13.826Z,15.50
2017-12-06T11:34:41.282Z,16.80
2017-12-06T11:37:08.736Z,16.15
2017-12-06T11:39:36.199Z,15.30
2017-12-06T11:42:03.655Z,16.00
2017-12-06T11:44:31.116Z,14.25
2017-12-06T11:47:00.057Z,16.20
2017-12-06T11:49:27.592Z,15.82
2017-12-06T11:51:55.024Z,14.63
2017-12-06T11:54:22.485Z,15.00
2017-12-06T11:56:49.932Z,14.75
2017-12-06T11:59:18.171Z,15.07
2017-12-06T12:01:45.626Z,14.70
2017-12-06T12:04:13.087Z,14.00
2017-12-06T12:06:40.571Z,14.73
2017-12-06T12:09:08.022Z,16.12
2017-12-06T12:11:36.251Z,14.87
2017-12-06T12:14:03.723Z,14.15
2017-12-06T12:16:31.193Z,15.40
2017-12-06T12:18:58.644Z,16.85
2017-12-06T12:21:26.884Z,17.05
2017-12-06T12:23:54.327Z,17.92
2017-12-06T12:26:21.800Z,16.02
2017-12-06T12:28:49.239Z,17.23
2017-12-06T12:31:17.476Z,16.75
2017-12-06T12:33:44.937Z,17.15
2017-12-06T12:36:12.373Z,17.50
2017-12-06T12:38:39.892Z,16.25
2017-12-06T12:41:07.360Z,17.27
2017-12-06T12:43:35.580Z,17.73
2017-12-06T12:46:03.047Z,17.00
2017-12-06T12:48:30.508Z,14.73
2017-12-06T12:50:58.008Z,17.25
2017-12-06T12:53:25.468Z,18.67
2017-12-06T12:55:52.931Z,18.27
2017-12-06T12:58:20.371Z,16.08
2017-12-06T13:00:55.148Z,16.75
2017-12-06T13:03:22.595Z,18.80
2017-12-06T13:05:50.861Z,16.30
2017-12-06T13:08:18.314Z,16.52
2017-12-06T13:10:45.810Z,17.17
2017-12-06T13:13:13.298Z,16.58
2017-12-06T13:15:40.781Z,17.65
2017-12-06T13:18:08.240Z,18.20
2017-12-06T13:20:35.710Z,15.23
2017-12-06T13:23:03.167Z,17.23
2017-12-06T13:25:30.624Z,18.02
2017-12-06T13:27:58.090Z,17.42
2017-12-06T13:30:25.544Z,16.73
2017-12-06T13:32:53.779Z,18.37
2017-12-06T13:35:21.263Z,17.30
2017-12-06T13:37:48.723Z,17.77
2017-12-06T13:40:16.716Z,18.08
2017-12-06T13:42:44.200Z,17.95
2017-12-06T13:45:11.752Z,19.35
2017-12-06T13:47:39.232Z,17.20
2017-12-06T13:50:06.676Z,19.52
2017-12-06T13:52:34.934Z,18.90
2017-12-06T13:55:02.359Z,18.10
2017-12-06T13:57:29.807Z,16.58
2017-12-06T13:59:57.251Z,19.15
2017-12-06T14:02:24.690Z,18.05
2017-12-06T14:04:52.160Z,20.60
2017-12-06T14:07:19.613Z,20.30
2017-12-06T14:09:47.845Z,20.12
2017-12-06T14:12:15.313Z,17.42
2017-12-06T14:14:42.817Z,19.80
2017-12-06T14:17:10.300Z,19.85
2017-12-06T14:19:37.767Z,20.55
2017-12-06T14:22:05.196Z,18.87
2017-12-06T14:24:32.904Z,19.70
2017-12-06T14:27:00.367Z,18.85
2017-12-06T14:29:27.805Z,18.42
2017-12-06T14:31:56.024Z,18.65
2017-12-06T14:34:23.476Z,18.75
2017-12-06T14:36:51.699Z,17.80
2017-12-06T14:39:19.160Z,19.23
2017-12-06T14:41:46.639Z,19.00
2017-12-06T14:44:14.134Z,16.60
2017-12-06T14:46:41.608Z,19.17
2017-12-06T14:49:09.083Z,19.23
2017-12-06T14:51:36.572Z,18.30
2017-12-06T14:54:04.187Z,18.87
2017-12-06T14:56:31.654Z,17.80
2017-12-06T14:58:59.127Z,16.90
2017-12-06T15:01:26.604Z,19.65
2017-12-06T15:03:54.143Z,19.20
2017-12-06T15:06:21.617Z,18.77
2017-12-06T15:08:49.135Z,18.35
2017-12-06T15:11:16.592Z,17.98
2017-12-06T15:13:44.075Z,17.45
2017-12-06T15:16:11.516Z,17.02
2017-12-06T15:18:38.985Z,16.52
2017-12-06T15:21:06.483Z,19.30
2017-12-06T15:23:33.991Z,17.33
2017-12-06T15:26:02.220Z,17.98
2017-12-06T15:28:30.655Z,18.92
2017-12-06T15:30:58.116Z,17.55
2017-12-06T15:33:25.580Z,18.08
2017-12-06T15:35:53.056Z,17.60
2017-12-06T15:38:20.515Z,18.83
2017-12-06T15:40:49.472Z,16.92
2017-12-06T15:43:16.937Z,16.27
2017-12-06T15:45:44.420Z,17.35
2017-12-06T15:48:12.105Z,21.92
2017-12-06T15:50:39.555Z,17.40
2017-12-06T15:53:07.032Z,17.67
2017-12-06T15:55:34.469Z,17.50
2017-12-06T15:58:01.969Z,17.23
2017-12-06T16:00:29.437Z,17.55
2017-12-06T16:02:57.318Z,18.33
2017-12-06T16:05:24.795Z,19.62
2017-12-06T16:07:52.260Z,18.40
2017-12-06T16:10:19.700Z,17.83
2017-12-06T16:12:47.221Z,19.33
2017-12-06T16:15:14.663Z,15.85
2017-12-06T16:17:42.909Z,18.48
2017-12-06T16:20:10.381Z,17.90
2017-12-06T16:22:37.817Z,16.50
2017-12-06T16:25:05.293Z,17.33
2017-12-06T16:27:32.975Z,17.55
2017-12-06T16:30:00.476Z,17.77
2017-12-06T16:32:27.976Z,17.30
2017-12-06T16:35:16.095Z,17.00
2017-12-06T16:37:43.625Z,16.23
2017-12-06T16:40:11.275Z,16.90
2017-12-06T16:42:38.765Z,16.55
2017-12-06T16:45:06.246Z,17.12
2017-12-06T16:47:33.791Z,16.75
2017-12-06T16:50:01.253Z,17.58
2017-12-06T16:52:28.708Z,17.35
2017-12-06T16:54:56.176Z,17.92
2017-12-06T16:57:23.665Z,16.90
2017-12-06T16:59:51.133Z,17.10
2017-12-06T17:02:18.625Z,16.65
2017-12-06T17:04:46.117Z,16.30
2017-12-06T17:07:13.563Z,17.48
2017-12-06T17:09:41.065Z,16.75
2017-12-06T17:12:08.508Z,17.77
2017-12-06T17:14:35.963Z,17.40
2017-12-06T17:17:03.425Z,17.00
2017-12-06T17:19:30.884Z,17.87
2017-12-06T17:21:58.366Z,16.90
2017-12-06T17:24:25.872Z,16.23
2017-12-06T17:26:53.358Z,16.45
2017-12-06T17:29:32.546Z,16.75
2017-12-06T17:32:00.174Z,17.73
2017-12-06T17:34:28.428Z,15.70
2017-12-06T17:36:56.780Z,16.40
2017-12-06T17:39:24.250Z,18.35
2017-12-06T17:41:51.725Z,16.75
2017-12-06T17:53:59.982Z,16.67
2017-12-06T17:56:27.444Z,17.00
2017-12-06T17:58:56.013Z,19.62
2017-12-06T18:01:27.503Z,17.92
2017-12-06T18:16:46.400Z,16.55
2017-12-06T18:19:15.884Z,16.70
2017-12-06T18:21:43.720Z,17.40
2017-12-06T18:24:12.581Z,16.92
2017-12-06T18:26:40.187Z,16.60
2017-12-06T18:29:07.740Z,17.08
2017-12-06T18:34:08.053Z,18.05
2017-12-06T18:36:35.539Z,17.65
2017-12-06T18:41:38.690Z,17.80
2017-12-06T18:44:06.990Z,16.65
2017-12-06T18:46:35.690Z,19.10
2017-12-06T18:49:03.939Z,17.83
2017-12-06T18:51:31.750Z,16.62
2017-12-06T18:53:59.278Z,18.52
2017-12-06T18:56:27.851Z,16.55
2017-12-06T18:58:55.526Z,18.85
2017-12-06T19:01:25.115Z,18.23
2017-12-06T19:03:52.598Z,15.98
2017-12-06T19:06:21.612Z,18.58
2017-12-06T19:08:49.611Z,16.35
2017-12-06T19:11:18.068Z,17.85
2017-12-06T19:13:45.763Z,17.83
2017-12-06T19:16:13.236Z,16.08
2017-12-06T19:18:40.718Z,16.87
2017-12-06T19:21:11.547Z,18.87
2017-12-06T19:23:39.739Z,17.15
2017-12-06T19:35:47.202Z,17.55
2017-12-06T19:38:14.971Z,17.62
2017-12-06T19:40:42.410Z,17.30
2017-12-06T19:56:03.401Z,16.50
2017-12-06T19:58:33.881Z,16.65
2017-12-06T20:01:04.313Z,17.65
2017-12-06T20:03:32.099Z,18.10
2017-12-06T20:08:34.537Z,17.73
2017-12-06T20:11:02.039Z,17.95
2017-12-06T20:13:31.406Z,18.45
2017-12-06T20:15:59.091Z,17.55
2017-12-06T20:18:31.864Z,17.37
2017-12-06T20:20:59.622Z,15.48
2017-12-06T20:33:07.329Z,17.17
2017-12-06T20:35:40.050Z,17.85
2017-12-06T20:38:08.286Z,17.67
2017-12-06T20:50:17.456Z,16.75
2017-12-06T20:52:45.696Z,17.90
2017-12-06T20:57:46.001Z,16.77
2017-12-06T21:00:14.449Z,17.08
2017-12-06T21:12:22.277Z,16.35
2017-12-06T21:24:31.819Z,16.35
2017-12-06T21:29:32.719Z,18.02
2017-12-06T21:32:01.207Z,16.48
2017-12-06T21:34:29.704Z,17.48
2017-12-06T21:36:57.599Z,16.67
2017-12-06T21:39:25.685Z,16.42
2017-12-06T21:41:53.457Z,16.62
2017-12-06T21:44:23.290Z,15.98
2017-12-06T21:46:50.750Z,17.23
2017-12-06T21:49:18.299Z,17.02
2017-12-06T21:51:45.973Z,17.23
2017-12-06T21:54:13.462Z,16.05
2017-12-06T21:56:40.920Z,14.35
2017-12-06T21:59:08.395Z,16.30
2017-12-06T22:11:17.740Z,15.20
2017-12-06T22:23:26.688Z,16.55
2017-12-06T22:25:54.934Z,15.52
2017-12-06T22:38:03.360Z,17.35
2017-12-06T22:40:30.868Z,18.15
2017-12-06T22:42:58.480Z,17.10
2017-12-06T22:45:26.029Z,16.65
2017-12-06T22:47:53.516Z,16.45
2017-12-06T22:50:21.754Z,18.10
2017-12-06T22:52:49.236Z,17.23
2017-12-06T22:55:16.691Z,15.82
2017-12-06T22:57:44.172Z,17.62
2017-12-06T23:00:11.640Z,17.95
2017-12-06T23:02:39.136Z,16.85
2017-12-06T23:05:06.593Z,17.17
2017-12-06T23:07:34.031Z,17.10
2017-12-06T23:10:02.296Z,17.05
2017-12-06T23:12:29.847Z,16.05
2017-12-06T23:14:57.333Z,17.25
2017-12-06T23:17:24.763Z,17.10
2017-12-06T23:19:52.991Z,18.20
2017-12-06T23:22:20.456Z,18.40
2017-12-06T23:24:47.923Z,18.42
2017-12-06T23:27:15.370Z,16.95
2017-12-06T23:29:43.609Z,19.10
2017-12-06T23:32:11.079Z,18.37
2017-12-06T23:34:38.552Z,17.52
2017-12-06T23:37:05.993Z,17.83
2017-12-06T23:39:34.226Z,17.55
2017-12-06T23:42:01.697Z,17.62
2017-12-06T23:44:30.975Z,18.00
2017-12-06T23:46:59.195Z,18.15
2017-12-06T23:49:26.624Z,17.20
2017-12-06T23:51:54.084Z,18.05
2017-12-06T23:54:21.549Z,19.15
2017-12-06T23:56:49.012Z,17.15
2017-12-06T23:59:17.172Z,17.37
